Time;durP1;ratioP1;P1;durP2;ratioP2;P2;SDS_P1;SDS_P2;PMS_P1;PMS_P2;Temp;Humidity;BMP_temperature;BMP_pressure;BME280_temperature;BME280_humidity;BME280_pressure;Samples;Min_cycle;Max_cycle;Signal;HPM_P1;HPM_P2
2022/12/07 00:00:15;;;;;;;24.52;16.20;;;;;;;;;;5055346;28;20417;-83
2022/12/07 00:02:41;;;;;;;25.27;16.60;;;;;;;;;;5047531;28;20874;-82
2022/12/07 00:05:08;;;;;;;21.42;15.25;;;;;;;;;;5051079;28;20432;-82
2022/12/07 00:07:36;;;;;;;27.77;16.25;;;;;;;;;;5058369;28;20433;-82
2022/12/07 00:10:04;;;;;;;26.23;16.13;;;;;;;;;;5052206;28;20471;-82
2022/12/07 00:12:30;;;;;;;22.02;14.68;;;;;;;;;;5053820;28;20421;-82
2022/12/07 00:14:56;;;;;;;22.20;14.13;;;;;;;;;;5052436;28;20425;-82
2022/12/07 00:17:23;;;;;;;20.98;14.10;;;;;;;;;;5056395;28;20424;-82
2022/12/07 00:19:49;;;;;;;24.60;14.70;;;;;;;;;;5053166;28;20432;-82
2022/12/07 00:22:16;;;;;;;24.83;15.13;;;;;;;;;;5053141;28;20423;-82
2022/12/07 00:24:42;;;;;;;22.10;13.50;;;;;;;;;;5052270;28;20418;-82
2022/12/07 00:27:10;;;;;;;22.80;13.80;;;;;;;;;;5054944;28;20411;-82
2022/12/07 00:29:36;;;;;;;21.17;13.70;;;;;;;;;;5052116;28;20435;-83
2022/12/07 00:32:03;;;;;;;22.38;13.10;;;;;;;;;;5051356;28;20429;-82
2022/12/07 00:34:30;;;;;;;19.42;12.68;;;;;;;;;;5052871;28;20429;-82
2022/12/07 00:36:56;;;;;;;18.53;11.30;;;;;;;;;;5048124;28;20416;-82
2022/12/07 00:39:22;;;;;;;20.17;11.50;;;;;;;;;;5052557;28;20419;-82
2022/12/07 00:41:49;;;;;;;19.75;12.20;;;;;;;;;;5053508;28;20418;-82
2022/12/07 00:44:17;;;;;;;15.43;10.43;;;;;;;;;;5048723;28;20434;-82
2022/12/07 00:46:45;;;;;;;14.13;9.70;;;;;;;;;;5050168;28;20417;-82
2022/12/07 00:49:11;;;;;;;14.07;9.10;;;;;;;;;;5055238;28;20421;-82
2022/12/07 00:51:37;;;;;;;16.70;8.80;;;;;;;;;;5054902;28;20413;-82
2022/12/07 00:54:04;;;;;;;17.40;7.90;;;;;;;;;;5052131;28;20416;-82
2022/12/07 00:56:30;;;;;;;14.57;8.25;;;;;;;;;;5046245;28;20494;-82
2022/12/07 00:58:58;;;;;;;15.32;8.00;;;;;;;;;;5052959;28;20425;-82
2022/12/07 01:01:27;;;;;;;14.25;7.80;;;;;;;;;;5046253;28;20420;-82
2022/12/07 01:03:53;;;;;;;16.88;8.45;;;;;;;;;;5053449;28;20427;-82
2022/12/07 01:06:21;;;;;;;11.55;7.50;;;;;;;;;;5053713;28;20411;-82
2022/12/07 01:08:47;;;;;;;13.65;7.40;;;;;;;;;;5052166;28;20544;-82
2022/12/07 01:11:16;;;;;;;14.27;7.72;;;;;;;;;;5054665;28;20442;-82
2022/12/07 01:13:42;;;;;;;12.80;6.68;;;;;;;;;;5052895;28;20433;-83
2022/12/07 01:16:11;;;;;;;13.52;6.60;;;;;;;;;;5052758;28;20429;-82
2022/12/07 01:18:39;;;;;;;14.30;6.40;;;;;;;;;;5055856;28;20439;-82
2022/12/07 01:21:06;;;;;;;11.60;5.55;;;;;;;;;;5048301;28;20803;-82
2022/12/07 01:23:33;;;;;;;9.43;4.73;;;;;;;;;;5050579;28;20429;-82
2022/12/07 01:26:01;;;;;;;8.70;4.25;;;;;;;;;;5055487;28;20906;-82
2022/12/07 01:28:27;;;;;;;8.90;4.03;;;;;;;;;;5049498;28;20437;-82
2022/12/07 01:30:57;;;;;;;9.00;3.80;;;;;;;;;;5052513;28;20430;-82
2022/12/07 01:33:24;;;;;;;9.77;3.80;;;;;;;;;;5053949;28;20427;-82
2022/12/07 01:35:51;;;;;;;15.30;4.50;;;;;;;;;;5055722;28;20429;-82
2022/12/07 01:38:18;;;;;;;7.87;3.40;;;;;;;;;;5051202;28;20462;-82
2022/12/07 01:40:44;;;;;;;8.18;3.60;;;;;;;;;;5056122;28;20433;-82
2022/12/07 01:43:15;;;;;;;10.57;4.20;;;;;;;;;;5057203;28;20953;-82
2022/12/07 01:45:43;;;;;;;7.88;3.95;;;;;;;;;;5050624;28;20439;-83
2022/12/07 01:48:10;;;;;;;8.60;4.00;;;;;;;;;;5052023;28;20799;-82
2022/12/07 01:50:37;;;;;;;10.90;3.60;;;;;;;;;;5049775;28;20948;-82
2022/12/07 01:53:08;;;;;;;7.63;3.58;;;;;;;;;;5052357;28;20954;-82
2022/12/07 01:55:35;;;;;;;8.02;3.90;;;;;;;;;;5046747;28;20431;-82
2022/12/07 01:58:01;;;;;;;9.25;4.30;;;;;;;;;;5052163;28;20448;-82
2022/12/07 02:00:27;;;;;;;11.38;4.47;;;;;;;;;;5054483;28;20425;-82
2022/12/07 02:02:56;;;;;;;8.40;4.70;;;;;;;;;;5051912;28;20433;-82
2022/12/07 02:05:23;;;;;;;6.85;4.30;;;;;;;;;;5055918;28;20431;-82
2022/12/07 02:07:50;;;;;;;11.63;5.65;;;;;;;;;;5052253;28;20946;-82
2022/12/07 02:10:19;;;;;;;10.50;5.00;;;;;;;;;;5056651;28;20425;-82
2022/12/07 02:12:47;;;;;;;12.10;4.97;;;;;;;;;;5054900;28;20803;-82
2022/12/07 02:15:13;;;;;;;9.03;5.40;;;;;;;;;;5056244;28;20427;-82
2022/12/07 02:17:48;;;;;;;9.20;5.03;;;;;;;;;;5054970;28;20803;-82
2022/12/07 02:20:22;;;;;;;10.13;5.27;;;;;;;;;;5053694;28;20421;-82
2022/12/07 02:23:03;;;;;;;7.20;5.13;;;;;;;;;;5055337;28;20425;-82
2022/12/07 02:25:36;;;;;;;12.63;4.97;;;;;;;;;;5040251;28;20888;-82
2022/12/07 02:28:05;;;;;;;12.05;4.93;;;;;;;;;;5054441;28;20930;-82
2022/12/07 02:30:34;;;;;;;10.98;5.18;;;;;;;;;;5054313;28;20429;-82
2022/12/07 02:33:02;;;;;;;11.48;5.20;;;;;;;;;;5053863;28;20421;-82
2022/12/07 02:35:31;;;;;;;9.95;5.30;;;;;;;;;;5057835;28;20462;-82
2022/12/07 02:38:03;;;;;;;9.10;5.00;;;;;;;;;;5053322;28;20425;-82
2022/12/07 02:40:32;;;;;;;6.83;4.80;;;;;;;;;;5056726;28;20452;-81
2022/12/07 02:43:02;;;;;;;12.43;5.40;;;;;;;;;;5054009;28;20420;-82
2022/12/07 02:45:30;;;;;;;9.13;5.25;;;;;;;;;;5053068;28;20483;-82
2022/12/07 02:47:59;;;;;;;11.10;4.80;;;;;;;;;;5056587;28;20513;-82
2022/12/07 02:50:26;;;;;;;7.33;5.10;;;;;;;;;;5057564;28;20875;-82
2022/12/07 02:52:52;;;;;;;8.57;4.80;;;;;;;;;;5054927;28;20437;-82
2022/12/07 02:55:21;;;;;;;8.75;4.20;;;;;;;;;;5050153;28;20923;-82
2022/12/07 02:57:56;;;;;;;9.40;4.72;;;;;;;;;;5058885;28;20432;-82
2022/12/07 03:00:22;;;;;;;8.55;3.50;;;;;;;;;;5052621;28;20426;-82
2022/12/07 03:02:53;;;;;;;10.30;3.70;;;;;;;;;;5053393;28;20430;-82
2022/12/07 03:05:32;;;;;;;6.07;3.38;;;;;;;;;;5056391;28;20436;-82
2022/12/07 03:08:01;;;;;;;9.43;3.20;;;;;;;;;;5054595;28;20418;-82
2022/12/07 03:10:29;;;;;;;7.10;2.83;;;;;;;;;;5053335;28;20423;-82
2022/12/07 03:13:00;;;;;;;6.82;2.55;;;;;;;;;;5053231;28;20421;-82
2022/12/07 03:15:30;;;;;;;6.10;2.00;;;;;;;;;;5054259;28;20425;-82
2022/12/07 03:17:57;;;;;;;8.32;2.83;;;;;;;;;;5054329;28;20930;-82
2022/12/07 03:20:25;;;;;;;5.65;2.15;;;;;;;;;;5056382;28;20455;-82
2022/12/07 03:22:53;;;;;;;7.95;2.28;;;;;;;;;;5051335;28;20805;-82
2022/12/07 03:25:20;;;;;;;7.70;2.40;;;;;;;;;;5054088;28;20823;-82
2022/12/07 03:27:50;;;;;;;6.88;2.10;;;;;;;;;;5053015;28;20443;-82
2022/12/07 03:30:18;;;;;;;5.93;3.07;;;;;;;;;;5057131;28;20437;-82
2022/12/07 03:32:46;;;;;;;7.05;2.65;;;;;;;;;;5052552;28;20417;-82
2022/12/07 03:35:16;;;;;;;8.75;3.88;;;;;;;;;;5055742;28;20441;-82
2022/12/07 03:37:46;;;;;;;9.80;4.60;;;;;;;;;;5050623;28;20937;-82
2022/12/07 03:40:17;;;;;;;12.45;6.80;;;;;;;;;;5052049;28;20411;-81
2022/12/07 03:42:43;;;;;;;11.70;6.75;;;;;;;;;;5052229;28;20423;-82
2022/12/07 03:45:11;;;;;;;14.27;7.65;;;;;;;;;;5052893;28;20432;-82
2022/12/07 03:47:40;;;;;;;11.07;6.53;;;;;;;;;;5050956;28;20423;-83
2022/12/07 03:50:08;;;;;;;7.95;5.90;;;;;;;;;;5051434;28;20413;-82
2022/12/07 03:52:38;;;;;;;11.52;5.78;;;;;;;;;;5054062;28;20431;-82
2022/12/07 03:55:07;;;;;;;7.38;5.15;;;;;;;;;;5054899;28;20432;-82
2022/12/07 03:57:35;;;;;;;9.48;4.70;;;;;;;;;;5054801;28;20493;-82
2022/12/07 04:00:04;;;;;;;8.77;4.40;;;;;;;;;;5052761;28;20411;-82
2022/12/07 04:02:31;;;;;;;9.25;4.90;;;;;;;;;;5054720;28;20485;-82
2022/12/07 04:04:57;;;;;;;8.05;4.40;;;;;;;;;;5052595;28;20431;-82
2022/12/07 04:07:24;;;;;;;10.15;3.90;;;;;;;;;;5053236;28;20414;-82
2022/12/07 04:09:50;;;;;;;12.18;4.38;;;;;;;;;;5052497;28;20422;-82
2022/12/07 04:12:17;;;;;;;10.75;5.00;;;;;;;;;;5054282;28;20415;-82
2022/12/07 04:14:44;;;;;;;7.57;4.47;;;;;;;;;;5055202;28;20424;-83
2022/12/07 04:17:11;;;;;;;9.63;4.72;;;;;;;;;;5054502;28;20998;-82
2022/12/07 04:19:37;;;;;;;10.68;5.70;;;;;;;;;;5056630;28;20425;-82
2022/12/07 04:22:04;;;;;;;14.13;5.25;;;;;;;;;;5035982;28;20421;-82
2022/12/07 04:24:31;;;;;;;6.32;4.55;;;;;;;;;;5052956;28;20430;-82
2022/12/07 04:26:57;;;;;;;10.32;5.45;;;;;;;;;;5052392;28;20425;-82
2022/12/07 04:29:24;;;;;;;12.63;5.85;;;;;;;;;;5053947;28;20794;-82
2022/12/07 04:31:51;;;;;;;9.23;4.47;;;;;;;;;;5055444;28;20425;-82
2022/12/07 04:34:18;;;;;;;11.68;5.15;;;;;;;;;;5055186;28;20430;-81
2022/12/07 04:36:45;;;;;;;9.52;4.82;;;;;;;;;;5052645;28;20407;-81
2022/12/07 04:39:18;;;;;;;9.45;4.78;;;;;;;;;;5035573;28;20424;-82
2022/12/07 04:41:44;;;;;;;9.18;4.40;;;;;;;;;;5051700;28;20417;-82
2022/12/07 04:44:11;;;;;;;10.10;5.10;;;;;;;;;;5057224;28;20508;-82
2022/12/07 04:46:37;;;;;;;10.40;4.60;;;;;;;;;;5051059;28;20931;-82
2022/12/07 04:49:05;;;;;;;9.00;4.30;;;;;;;;;;5052599;28;20528;-82
2022/12/07 04:51:31;;;;;;;8.90;3.97;;;;;;;;;;5057095;28;20402;-82
2022/12/07 04:53:57;;;;;;;8.57;4.00;;;;;;;;;;5051491;28;20434;-82
2022/12/07 04:56:24;;;;;;;8.15;4.00;;;;;;;;;;5048769;28;20414;-82
2022/12/07 04:58:50;;;;;;;8.73;4.30;;;;;;;;;;5057165;28;20426;-83
2022/12/07 05:01:17;;;;;;;7.10;3.70;;;;;;;;;;5050763;28;20438;-82
2022/12/07 05:03:44;;;;;;;9.52;4.10;;;;;;;;;;5054471;28;20465;-82
2022/12/07 05:06:12;;;;;;;11.18;4.53;;;;;;;;;;5050795;28;20434;-82
2022/12/07 05:08:38;;;;;;;11.25;4.40;;;;;;;;;;5051359;28;20432;-82
2022/12/07 05:11:06;;;;;;;11.68;4.30;;;;;;;;;;5053373;28;20421;-81
2022/12/07 05:13:32;;;;;;;9.25;4.35;;;;;;;;;;5052716;28;20815;-82
2022/12/07 05:15:59;;;;;;;8.00;3.80;;;;;;;;;;5051656;28;20427;-82
2022/12/07 05:18:25;;;;;;;9.90;4.50;;;;;;;;;;5055833;28;20429;-82
2022/12/07 05:20:51;;;;;;;10.20;3.50;;;;;;;;;;5051183;28;20414;-82
2022/12/07 05:23:20;;;;;;;7.03;3.30;;;;;;;;;;5056104;28;20421;-82
2022/12/07 05:25:47;;;;;;;7.70;3.50;;;;;;;;;;5056060;28;20429;-82
2022/12/07 05:28:13;;;;;;;5.18;3.63;;;;;;;;;;5050625;28;20434;-82
2022/12/07 05:30:40;;;;;;;6.22;2.88;;;;;;;;;;5054080;28;20503;-82
2022/12/07 05:33:06;;;;;;;5.55;3.20;;;;;;;;;;5050939;28;20870;-82
2022/12/07 05:35:32;;;;;;;5.97;2.60;;;;;;;;;;5051398;28;20441;-81
2022/12/07 05:37:59;;;;;;;6.13;2.60;;;;;;;;;;5052280;28;20438;-82
2022/12/07 05:40:27;;;;;;;6.55;2.30;;;;;;;;;;5051494;28;20417;-82
2022/12/07 05:42:54;;;;;;;9.30;2.63;;;;;;;;;;5050845;28;20522;-82
2022/12/07 05:45:20;;;;;;;4.75;2.00;;;;;;;;;;5056209;28;20436;-82
2022/12/07 05:47:46;;;;;;;4.47;2.10;;;;;;;;;;5056317;28;20419;-82
2022/12/07 05:50:13;;;;;;;5.40;1.80;;;;;;;;;;5053871;28;20441;-82
2022/12/07 05:52:39;;;;;;;4.47;2.00;;;;;;;;;;5057830;28;20429;-82
2022/12/07 05:55:06;;;;;;;5.10;2.00;;;;;;;;;;5054857;28;20429;-82
2022/12/07 05:57:34;;;;;;;7.50;1.90;;;;;;;;;;5058802;28;20513;-82
2022/12/07 06:00:01;;;;;;;3.17;1.60;;;;;;;;;;5056862;28;20519;-82
2022/12/07 06:02:28;;;;;;;4.50;1.80;;;;;;;;;;5058705;28;20517;-82
2022/12/07 06:04:54;;;;;;;3.88;2.10;;;;;;;;;;5057773;28;20428;-83
2022/12/07 06:07:20;;;;;;;3.53;2.10;;;;;;;;;;5054146;28;20416;-82
2022/12/07 06:09:47;;;;;;;4.65;2.60;;;;;;;;;;5055200;28;20440;-82
2022/12/07 06:14:59;;;;;;;5.40;3.78;;;;;;;;;;5056764;28;20472;-82
2022/12/07 06:17:25;;;;;;;5.30;4.10;;;;;;;;;;5053568;28;20428;-82
2022/12/07 06:19:52;;;;;;;5.20;3.75;;;;;;;;;;5055689;28;20426;-82
2022/12/07 06:22:18;;;;;;;6.15;3.17;;;;;;;;;;5058389;28;20417;-82
2022/12/07 06:24:45;;;;;;;5.35;2.38;;;;;;;;;;5058217;28;20940;-82
2022/12/07 06:27:11;;;;;;;5.07;2.50;;;;;;;;;;5056499;28;20425;-82
2022/12/07 06:29:37;;;;;;;4.97;2.53;;;;;;;;;;5055623;28;20428;-82
2022/12/07 06:32:06;;;;;;;9.07;2.28;;;;;;;;;;5056358;28;20891;-82
2022/12/07 06:34:33;;;;;;;4.75;1.80;;;;;;;;;;5058700;28;20432;-82
2022/12/07 06:36:59;;;;;;;3.08;1.60;;;;;;;;;;5055109;28;20430;-82
2022/12/07 06:39:26;;;;;;;6.53;2.15;;;;;;;;;;5056165;28;20429;-82
2022/12/07 06:41:53;;;;;;;5.85;2.50;;;;;;;;;;5058497;28;20421;-83
2022/12/07 06:44:20;;;;;;;6.43;2.60;;;;;;;;;;5053419;28;20433;-82
2022/12/07 06:46:46;;;;;;;5.50;2.20;;;;;;;;;;5055842;28;20414;-82
2022/12/07 06:49:14;;;;;;;12.65;2.88;;;;;;;;;;5057367;28;20409;-83
2022/12/07 06:51:41;;;;;;;7.30;2.20;;;;;;;;;;5054275;28;20410;-82
2022/12/07 06:54:08;;;;;;;6.22;2.45;;;;;;;;;;5055359;28;20781;-82
2022/12/07 06:56:35;;;;;;;6.35;3.00;;;;;;;;;;5057309;28;20469;-82
2022/12/07 06:59:02;;;;;;;5.60;2.42;;;;;;;;;;5056285;28;20429;-83
2022/12/07 07:01:30;;;;;;;9.10;2.75;;;;;;;;;;5050503;28;20438;-82
2022/12/07 07:03:56;;;;;;;4.55;2.67;;;;;;;;;;5057162;28;20413;-82
2022/12/07 07:06:24;;;;;;;5.95;3.10;;;;;;;;;;5054400;28;20410;-82
2022/12/07 07:08:50;;;;;;;5.88;2.60;;;;;;;;;;5054824;28;20420;-82
2022/12/07 07:11:17;;;;;;;10.35;2.80;;;;;;;;;;5053403;28;20437;-83
2022/12/07 07:13:43;;;;;;;4.10;2.55;;;;;;;;;;5055656;28;20431;-82
2022/12/07 07:16:10;;;;;;;8.77;2.90;;;;;;;;;;5055736;28;20417;-82
2022/12/07 07:18:36;;;;;;;11.30;2.35;;;;;;;;;;5050571;28;20528;-82
2022/12/07 07:21:03;;;;;;;9.10;2.13;;;;;;;;;;5055336;28;20419;-82
2022/12/07 07:23:30;;;;;;;6.15;2.30;;;;;;;;;;5053262;28;20432;-82
2022/12/07 07:25:57;;;;;;;6.68;2.30;;;;;;;;;;5055750;28;20424;-82
2022/12/07 07:28:23;;;;;;;6.25;2.60;;;;;;;;;;5053939;28;20422;-82
2022/12/07 07:30:50;;;;;;;6.78;2.03;;;;;;;;;;5053904;28;20422;-83
2022/12/07 07:33:16;;;;;;;5.10;1.98;;;;;;;;;;5053276;28;20424;-82
2022/12/07 07:35:43;;;;;;;6.72;2.53;;;;;;;;;;5054240;28;20942;-82
2022/12/07 07:38:09;;;;;;;6.05;2.25;;;;;;;;;;5056384;28;20949;-82
2022/12/07 07:40:37;;;;;;;6.28;2.22;;;;;;;;;;5054638;28;20942;-82
2022/12/07 07:43:03;;;;;;;7.38;2.53;;;;;;;;;;5054006;28;20417;-82
2022/12/07 07:45:29;;;;;;;5.93;2.47;;;;;;;;;;5054415;28;20411;-82
2022/12/07 07:47:56;;;;;;;8.23;2.30;;;;;;;;;;5050094;28;20424;-82
2022/12/07 07:50:22;;;;;;;6.72;2.00;;;;;;;;;;5053170;28;20416;-83
2022/12/07 07:52:49;;;;;;;6.73;2.20;;;;;;;;;;5050480;28;20424;-82
2022/12/07 07:55:15;;;;;;;4.40;2.13;;;;;;;;;;5052619;28;20409;-82
2022/12/07 07:57:43;;;;;;;6.55;2.20;;;;;;;;;;5049762;28;20785;-82
2022/12/07 08:00:10;;;;;;;4.45;2.40;;;;;;;;;;5052616;28;20919;-82
2022/12/07 08:02:36;;;;;;;5.82;2.28;;;;;;;;;;5051277;28;20421;-84
2022/12/07 08:05:03;;;;;;;4.32;2.40;;;;;;;;;;5052149;28;20436;-82
2022/12/07 08:07:31;;;;;;;5.18;2.00;;;;;;;;;;5050695;28;20414;-82
2022/12/07 08:09:57;;;;;;;5.45;1.63;;;;;;;;;;5054294;28;20424;-82
2022/12/07 08:12:23;;;;;;;6.40;1.70;;;;;;;;;;5052494;28;20423;-82
2022/12/07 08:14:51;;;;;;;5.07;2.07;;;;;;;;;;5054070;28;20415;-82
2022/12/07 08:17:19;;;;;;;4.70;1.80;;;;;;;;;;5049477;28;20417;-82
2022/12/07 08:19:46;;;;;;;2.80;1.60;;;;;;;;;;5052640;28;20433;-82
2022/12/07 08:22:12;;;;;;;3.22;1.50;;;;;;;;;;5052450;28;20798;-81
2022/12/07 08:24:39;;;;;;;3.58;1.55;;;;;;;;;;5054841;28;20760;-82
2022/12/07 08:27:05;;;;;;;5.22;1.80;;;;;;;;;;5050454;28;20415;-82
2022/12/07 08:29:32;;;;;;;4.88;1.80;;;;;;;;;;5052988;28;20431;-82
2022/12/07 08:32:01;;;;;;;5.47;1.60;;;;;;;;;;5053331;28;20935;-81
2022/12/07 08:34:27;;;;;;;4.93;1.60;;;;;;;;;;5055238;28;20444;-82
2022/12/07 08:36:53;;;;;;;6.60;1.70;;;;;;;;;;5050454;28;20415;-82
2022/12/07 08:39:20;;;;;;;6.28;2.10;;;;;;;;;;5053189;28;20438;-81
2022/12/07 08:41:46;;;;;;;7.00;1.80;;;;;;;;;;5047746;28;20421;-81
2022/12/07 08:44:12;;;;;;;9.13;2.17;;;;;;;;;;5053971;28;20426;-82
2022/12/07 08:46:40;;;;;;;5.03;1.67;;;;;;;;;;5051264;28;20414;-82
2022/12/07 08:49:09;;;;;;;3.08;1.30;;;;;;;;;;5055278;28;20435;-82
2022/12/07 08:51:36;;;;;;;2.42;1.60;;;;;;;;;;5050099;28;20420;-82
2022/12/07 08:54:04;;;;;;;3.80;1.40;;;;;;;;;;5053106;28;20426;-81
2022/12/07 08:56:33;;;;;;;5.38;1.70;;;;;;;;;;5044750;28;20425;-81
2022/12/07 08:58:59;;;;;;;5.60;1.40;;;;;;;;;;5048681;28;20419;-81
2022/12/07 09:01:26;;;;;;;2.58;1.20;;;;;;;;;;5052383;28;20458;-81
2022/12/07 09:03:53;;;;;;;4.22;1.30;;;;;;;;;;5048558;28;20421;-82
2022/12/07 09:06:21;;;;;;;4.85;1.50;;;;;;;;;;5053843;28;20968;-82
2022/12/07 09:08:48;;;;;;;6.72;1.73;;;;;;;;;;5053684;28;20414;-82
2022/12/07 09:11:14;;;;;;;5.40;1.80;;;;;;;;;;5052934;28;20428;-82
2022/12/07 09:13:41;;;;;;;7.10;2.20;;;;;;;;;;5049692;28;20415;-82
2022/12/07 09:16:07;;;;;;;5.20;1.70;;;;;;;;;;5051667;28;20433;-82
2022/12/07 09:18:34;;;;;;;4.72;2.00;;;;;;;;;;5049039;28;20430;-82
2022/12/07 09:21:00;;;;;;;5.23;2.30;;;;;;;;;;5060694;28;20494;-82
2022/12/07 09:23:28;;;;;;;4.05;2.20;;;;;;;;;;5058263;28;20496;-82
2022/12/07 09:25:55;;;;;;;5.30;2.40;;;;;;;;;;5055647;28;20819;-82
2022/12/07 09:28:21;;;;;;;5.55;2.20;;;;;;;;;;5057298;28;20912;-82
2022/12/07 09:30:48;;;;;;;7.57;2.53;;;;;;;;;;5056597;28;20862;-82
2022/12/07 09:33:14;;;;;;;3.50;2.10;;;;;;;;;;5056400;28;20409;-82
2022/12/07 09:35:45;;;;;;;6.82;2.70;;;;;;;;;;5056488;28;20495;-82
2022/12/07 09:38:11;;;;;;;5.60;2.42;;;;;;;;;;5050948;28;20805;-82
2022/12/07 09:40:39;;;;;;;6.38;2.70;;;;;;;;;;5055094;28;20916;-82
2022/12/07 09:43:13;;;;;;;5.95;2.50;;;;;;;;;;5053667;28;20422;-82
2022/12/07 09:45:39;;;;;;;4.80;2.60;;;;;;;;;;5060558;28;20419;-82
2022/12/07 09:48:07;;;;;;;9.43;2.88;;;;;;;;;;5056534;28;20417;-82
2022/12/07 09:50:33;;;;;;;7.93;3.10;;;;;;;;;;5054573;28;20410;-82
2022/12/07 09:53:06;;;;;;;5.82;2.88;;;;;;;;;;5055106;28;20803;-82
2022/12/07 09:55:34;;;;;;;6.97;2.65;;;;;;;;;;5053619;28;20496;-82
2022/12/07 09:58:02;;;;;;;7.85;2.70;;;;;;;;;;5053606;28;20417;-82
2022/12/07 10:00:28;;;;;;;5.90;2.78;;;;;;;;;;5055179;28;20415;-82
2022/12/07 10:02:56;;;;;;;5.32;2.60;;;;;;;;;;5052213;28;20411;-82
2022/12/07 10:05:24;;;;;;;7.38;2.90;;;;;;;;;;5058528;28;20413;-82
2022/12/07 10:07:51;;;;;;;8.38;2.88;;;;;;;;;;5055581;28;20419;-82
2022/12/07 10:10:19;;;;;;;8.57;3.35;;;;;;;;;;5054600;28;20433;-82
2022/12/07 10:12:54;;;;;;;8.25;2.83;;;;;;;;;;5054953;28;20766;-82
2022/12/07 10:15:21;;;;;;;7.57;3.00;;;;;;;;;;5056696;28;20765;-83
2022/12/07 10:17:49;;;;;;;7.10;3.03;;;;;;;;;;5052570;28;20421;-82
2022/12/07 10:20:17;;;;;;;7.60;3.20;;;;;;;;;;5055147;28;20412;-82
2022/12/07 10:22:57;;;;;;;7.72;2.70;;;;;;;;;;5056289;28;20993;-83
2022/12/07 10:25:24;;;;;;;6.80;2.00;;;;;;;;;;5053245;28;20430;-82
2022/12/07 10:27:58;;;;;;;2.55;2.00;;;;;;;;;;5053713;28;20415;-82
2022/12/07 10:30:26;;;;;;;4.90;2.50;;;;;;;;;;5055519;28;20417;-82
2022/12/07 10:32:52;;;;;;;5.32;2.20;;;;;;;;;;5053938;28;20429;-82
2022/12/07 10:35:20;;;;;;;5.30;2.40;;;;;;;;;;5056075;28;20782;-82
2022/12/07 10:37:48;;;;;;;6.75;2.40;;;;;;;;;;5056466;28;20783;-82
2022/12/07 10:40:25;;;;;;;5.13;2.30;;;;;;;;;;5053550;28;20426;-82
2022/12/07 10:43:01;;;;;;;8.10;2.40;;;;;;;;;;5056365;28;20429;-82
2022/12/07 10:45:29;;;;;;;8.10;2.40;;;;;;;;;;5054341;28;20410;-82
2022/12/07 10:48:01;;;;;;;6.43;2.50;;;;;;;;;;5056991;28;20998;-82
2022/12/07 10:50:39;;;;;;;4.60;1.90;;;;;;;;;;5058153;28;20431;-82
2022/12/07 10:53:11;;;;;;;6.90;2.28;;;;;;;;;;5052373;28;20428;-83
2022/12/07 10:55:46;;;;;;;6.18;2.20;;;;;;;;;;5052982;28;20437;-82
2022/12/07 10:58:20;;;;;;;5.22;2.38;;;;;;;;;;5055767;28;20427;-82
2022/12/07 11:00:52;;;;;;;6.13;2.10;;;;;;;;;;5053887;28;20783;-82
2022/12/07 11:03:35;;;;;;;6.72;2.33;;;;;;;;;;5054101;28;20415;-82
2022/12/07 11:06:08;;;;;;;12.93;2.30;;;;;;;;;;5051262;28;20415;-82
2022/12/07 11:08:42;;;;;;;7.43;2.28;;;;;;;;;;5053461;28;20425;-82
2022/12/07 11:11:13;;;;;;;5.07;2.13;;;;;;;;;;5053963;28;20463;-82
2022/12/07 11:13:45;;;;;;;6.05;2.10;;;;;;;;;;5054664;28;20422;-82
2022/12/07 11:16:30;;;;;;;9.82;4.70;;;;;;;;;;5053836;28;20429;-82
2022/12/07 11:19:05;;;;;;;6.03;2.65;;;;;;;;;;5051302;28;20421;-82
2022/12/07 11:21:34;;;;;;;8.77;2.80;;;;;;;;;;5055730;28;20431;-81
2022/12/07 11:24:03;;;;;;;18.83;11.20;;;;;;;;;;5053659;28;20479;-82
2022/12/07 11:26:46;;;;;;;12.93;6.35;;;;;;;;;;5052430;28;20426;-82
2022/12/07 11:29:19;;;;;;;8.52;2.80;;;;;;;;;;5054327;28;20410;-81
2022/12/07 11:31:54;;;;;;;15.65;6.47;;;;;;;;;;5052527;28;21057;-82
2022/12/07 11:34:25;;;;;;;14.63;9.27;;;;;;;;;;5050594;28;20913;-82
2022/12/07 11:36:53;;;;;;;11.88;5.20;;;;;;;;;;5053002;28;20426;-82
2022/12/07 11:39:23;;;;;;;10.95;4.40;;;;;;;;;;5052139;28;20826;-82
2022/12/07 11:41:51;;;;;;;7.38;2.00;;;;;;;;;;5048742;28;20800;-82
2022/12/07 11:44:25;;;;;;;8.95;2.92;;;;;;;;;;5057104;28;20433;-82
2022/12/07 11:46:55;;;;;;;9.32;2.25;;;;;;;;;;5051577;28;20433;-83
2022/12/07 11:49:27;;;;;;;8.43;1.90;;;;;;;;;;5054445;28;20407;-82
2022/12/07 11:51:55;;;;;;;4.10;1.60;;;;;;;;;;5049723;28;20419;-82
2022/12/07 11:54:24;;;;;;;5.53;1.75;;;;;;;;;;5058352;28;20409;-82
2022/12/07 11:56:52;;;;;;;10.05;4.60;;;;;;;;;;5053464;28;20435;-82
2022/12/07 11:59:20;;;;;;;6.50;1.93;;;;;;;;;;5056460;28;20468;-82
2022/12/07 12:01:51;;;;;;;7.00;1.88;;;;;;;;;;5054063;28;20419;-82
2022/12/07 12:04:24;;;;;;;5.63;1.52;;;;;;;;;;5057126;28;20925;-82
2022/12/07 12:06:52;;;;;;;5.50;1.40;;;;;;;;;;5052311;28;20973;-82
2022/12/07 12:09:22;;;;;;;7.00;1.80;;;;;;;;;;5051599;28;20419;-82
2022/12/07 12:11:57;;;;;;;3.90;1.65;;;;;;;;;;5053203;28;20441;-82
2022/12/07 12:14:44;;;;;;;7.13;1.83;;;;;;;;;;5050069;28;20417;-82
2022/12/07 12:17:26;;;;;;;5.45;1.60;;;;;;;;;;5053131;28;20425;-82
2022/12/07 12:20:00;;;;;;;7.15;2.40;;;;;;;;;;5046687;28;20462;-82
2022/12/07 12:22:34;;;;;;;5.22;1.30;;;;;;;;;;5052894;28;20943;-82
2022/12/07 12:25:00;;;;;;;6.32;1.70;;;;;;;;;;5054591;28;20993;-82
2022/12/07 12:27:29;;;;;;;6.38;1.40;;;;;;;;;;5052042;28;20424;-81
2022/12/07 12:30:00;;;;;;;5.38;1.30;;;;;;;;;;5051497;28;20500;-82
2022/12/07 12:32:33;;;;;;;3.50;1.20;;;;;;;;;;5051924;28;20412;-82
2022/12/07 12:35:21;;;;;;;6.85;1.83;;;;;;;;;;5053514;28;20442;-82
2022/12/07 12:37:49;;;;;;;3.78;1.30;;;;;;;;;;5050613;28;20442;-82
2022/12/07 12:40:34;;;;;;;8.50;2.07;;;;;;;;;;5055038;28;21160;-82
2022/12/07 12:43:00;;;;;;;4.38;1.50;;;;;;;;;;5052964;28;20424;-82
2022/12/07 12:45:28;;;;;;;3.10;1.70;;;;;;;;;;5055768;28;21447;-82
2022/12/07 12:47:58;;;;;;;5.53;1.50;;;;;;;;;;5050807;28;20448;-82
2022/12/07 12:50:26;;;;;;;6.90;1.83;;;;;;;;;;5051056;28;20941;-82
2022/12/07 12:53:02;;;;;;;2.97;1.85;;;;;;;;;;5049185;28;20426;-82
2022/12/07 12:55:50;;;;;;;8.07;2.55;;;;;;;;;;5049065;28;20425;-82
2022/12/07 12:58:31;;;;;;;4.85;2.17;;;;;;;;;;5053405;28;20455;-82
2022/12/07 13:01:16;;;;;;;5.45;2.10;;;;;;;;;;5047869;28;20499;-82
2022/12/07 13:03:52;;;;;;;6.82;2.80;;;;;;;;;;5050646;28;20930;-82
2022/12/07 13:06:20;;;;;;;6.93;2.30;;;;;;;;;;5053948;28;20409;-83
2022/12/07 13:08:48;;;;;;;8.05;2.67;;;;;;;;;;5049593;28;20844;-82
2022/12/07 13:11:19;;;;;;;6.85;2.05;;;;;;;;;;5047307;28;20430;-82
2022/12/07 13:13:45;;;;;;;9.20;2.70;;;;;;;;;;5046945;28;20428;-82
2022/12/07 13:16:27;;;;;;;8.93;2.05;;;;;;;;;;5047942;28;20406;-82
2022/12/07 13:18:53;;;;;;;6.50;2.10;;;;;;;;;;5036114;28;20413;-82
2022/12/07 13:21:44;;;;;;;9.40;2.90;;;;;;;;;;5051247;28;20413;-82
2022/12/07 13:24:13;;;;;;;8.45;2.58;;;;;;;;;;5033454;28;20429;-82
2022/12/07 13:26:42;;;;;;;7.78;2.58;;;;;;;;;;5047365;28;20432;-82
2022/12/07 13:29:11;;;;;;;13.37;2.90;;;;;;;;;;5046880;28;20418;-82
2022/12/07 13:31:40;;;;;;;12.77;2.60;;;;;;;;;;5052355;28;20437;-82
2022/12/07 13:34:28;;;;;;;11.98;3.28;;;;;;;;;;5048844;28;20771;-82
2022/12/07 13:36:54;;;;;;;7.77;2.83;;;;;;;;;;5050451;28;20421;-82
2022/12/07 13:39:23;;;;;;;9.65;2.60;;;;;;;;;;5053773;28;20433;-82
2022/12/07 13:41:51;;;;;;;6.90;2.30;;;;;;;;;;5048462;28;20417;-82
2022/12/07 13:44:18;;;;;;;6.65;2.80;;;;;;;;;;5054198;28;20429;-82
2022/12/07 13:46:48;;;;;;;9.40;2.65;;;;;;;;;;5050716;28;20417;-82
2022/12/07 13:49:18;;;;;;;11.63;2.80;;;;;;;;;;5048643;28;20410;-82
2022/12/07 13:51:45;;;;;;;9.63;2.85;;;;;;;;;;5048781;28;20409;-82
2022/12/07 13:54:12;;;;;;;9.90;3.50;;;;;;;;;;5051482;28;20939;-82
2022/12/07 13:56:41;;;;;;;12.63;3.20;;;;;;;;;;5050025;28;20428;-82
2022/12/07 13:59:13;;;;;;;12.18;3.80;;;;;;;;;;5046866;28;20431;-82
2022/12/07 14:01:39;;;;;;;8.55;3.00;;;;;;;;;;5050778;28;20426;-82
2022/12/07 14:04:19;;;;;;;6.07;2.55;;;;;;;;;;5051980;28;20409;-82
2022/12/07 14:06:50;;;;;;;4.80;2.35;;;;;;;;;;5048519;28;20417;-82
2022/12/07 14:09:19;;;;;;;5.25;2.33;;;;;;;;;;5051850;28;20426;-82
2022/12/07 14:11:47;;;;;;;6.00;2.20;;;;;;;;;;5053693;28;20419;-82
2022/12/07 14:14:15;;;;;;;7.38;2.47;;;;;;;;;;5053271;28;20500;-82
2022/12/07 14:16:41;;;;;;;7.55;2.65;;;;;;;;;;5055740;28;20429;-82
2022/12/07 14:19:41;;;;;;;6.43;2.47;;;;;;;;;;5050859;28;20438;-82
2022/12/07 14:22:09;;;;;;;5.43;1.90;;;;;;;;;;5055056;28;20899;-82
2022/12/07 14:24:42;;;;;;;4.85;2.00;;;;;;;;;;5057083;28;20420;-82
2022/12/07 14:27:17;;;;;;;7.28;1.90;;;;;;;;;;5053359;28;20922;-82
2022/12/07 14:29:44;;;;;;;4.43;1.60;;;;;;;;;;5055274;28;20420;-82
2022/12/07 14:32:19;;;;;;;5.68;1.60;;;;;;;;;;5052158;28;20417;-83
2022/12/07 14:34:54;;;;;;;6.47;1.58;;;;;;;;;;5048722;28;20439;-82
2022/12/07 14:37:20;;;;;;;5.17;2.30;;;;;;;;;;5052530;28;20465;-82
2022/12/07 14:39:46;;;;;;;6.10;2.50;;;;;;;;;;5050910;28;20426;-82
2022/12/07 14:42:13;;;;;;;7.55;3.38;;;;;;;;;;5052681;28;20409;-83
2022/12/07 14:44:41;;;;;;;7.87;4.23;;;;;;;;;;5054144;28;20413;-82
2022/12/07 14:47:09;;;;;;;13.97;8.73;;;;;;;;;;5050695;28;20417;-82
2022/12/07 14:49:36;;;;;;;11.43;7.88;;;;;;;;;;5051383;28;20440;-82